Custar, Ohio
Current Conditions -  °F | °C
As of 7:53 AM on Monday 22 Dec 2014 (Local Time) from KFDY Reporting Station
Haze Haze  
Wind Chill: 18°   Ceiling: Unl
Heat Index: 25°   Visibility: 4mi
Dew Point: 21°   Wind: 6mph
Humidity: 85%   Direction: 100°E
Pressure: 30.05"   Gusts: NA
Location:  41.28°N, 83.84°W
Report Text: KFDY 221253Z AUTO 10005KT 4SM BR CLR M04/M06 A3005 RMK AO2 SLP183 T10391061
Loading
Personal Weather Stations






























Interactive Weather Map New forecast layout! Learn more

10-Day Weather Forecast

Advertisements
Track Severe Weather on mobile